Csl Melbourne — 8PWP — position and weather

sailwx.info

Track history (hours):
 
Tides and Currents Weather Stations Pressure Air Temp Water Temp Dewpoint Dewpoint Depression Visibility Wind Speed Wind Dir Waves Ship Positions

Csl Melbourne

Last reported at 2016-Apr-09 01:22 UTC. Time now 2016-May-02 19:26 UTC.
Position N 01°13' E 103°30'.
Warning: this ship's position is 23 days out of date.

Length 187 m; draft 12.3 m.

Type: Cargo ship. MMSI: 314317000.

Date/timePositionNaut miles runAvg speedWind from/ knotsBaromVisibWave heightAir tempDewpointWater temp
2016-Apr-09 01:22N 01°13' E 103°30'1011.9
2016-Apr-09 00:33N 01°10' E 103°40'9 9.2
2016-Apr-08 23:33N 01°11' E 103°49'8 8.2
2016-Apr-08 22:33N 01°14' E 103°56'2 2.3
2016-Apr-08 21:28N 01°16' E 103°55'0 0.0
2016-Apr-08 20:31N 01°16' E 103°55'0 0.0
2016-Apr-08 19:31N 01°16' E 103°55'0 0.0
2016-Apr-08 18:28N 01°16' E 103°55'0 0.2
2016-Apr-08 17:28N 01°16' E 103°55'0 0.1
2016-Apr-08 16:28N 01°16' E 103°55'0 0.0
2016-Apr-08 15:31N 01°16' E 103°55'0 0.0
2016-Apr-08 14:31N 01°16' E 103°55'0 0.0
2016-Apr-08 13:28N 01°16' E 103°55'0 0.0
2016-Apr-08 12:28N 01°16' E 103°55'0 0.1
2016-Apr-08 11:31N 01°16' E 103°55'0 0.0
2016-Apr-08 10:31N 01°16' E 103°55'0 0.2
2016-Apr-08 09:28N 01°16' E 103°55'0 0.1
2016-Apr-08 08:33N 01°16' E 103°55'0 0.0
2016-Apr-08 07:33N 01°16' E 103°55'0 0.2
2016-Apr-08 06:33N 01°16' E 103°55'2 2.2
2016-Apr-08 05:33N 01°14' E 103°55'6 6.1
2016-Apr-08 04:34N 01°16' E 104°01'  
Track history (hours):
 
Tides and Currents Weather Stations Pressure Air Temp Water Temp Dewpoint Dewpoint Depression Visibility Wind Speed Wind Dir Waves Ship Positions

Csl Melbourne

Last reported at 2016-Apr-09 01:22 UTC. Time now 2016-May-02 19:26 UTC.
Position N 01°13' E 103°30'.
Warning: this ship's position is 23 days out of date.

Length 187 m; draft 12.3 m.

Type: Cargo ship. MMSI: 314317000.

Date/timePositionNaut miles runAvg speedWind from/ knotsBaromVisibWave heightAir tempDewpointWater temp
2016-Apr-09 01:22N 01°13' E 103°30'1011.9
2016-Apr-09 00:33N 01°10' E 103°40'9 9.2
2016-Apr-08 23:33N 01°11' E 103°49'8 8.2
2016-Apr-08 22:33N 01°14' E 103°56'2 2.3
2016-Apr-08 21:28N 01°16' E 103°55'0 0.0
2016-Apr-08 20:31N 01°16' E 103°55'0 0.0
2016-Apr-08 19:31N 01°16' E 103°55'0 0.0
2016-Apr-08 18:28N 01°16' E 103°55'0 0.2
2016-Apr-08 17:28N 01°16' E 103°55'0 0.1
2016-Apr-08 16:28N 01°16' E 103°55'0 0.0
2016-Apr-08 15:31N 01°16' E 103°55'0 0.0
2016-Apr-08 14:31N 01°16' E 103°55'0 0.0
2016-Apr-08 13:28N 01°16' E 103°55'0 0.0
2016-Apr-08 12:28N 01°16' E 103°55'0 0.1
2016-Apr-08 11:31N 01°16' E 103°55'0 0.0
2016-Apr-08 10:31N 01°16' E 103°55'0 0.2
2016-Apr-08 09:28N 01°16' E 103°55'0 0.1
2016-Apr-08 08:33N 01°16' E 103°55'0 0.0
2016-Apr-08 07:33N 01°16' E 103°55'0 0.2
2016-Apr-08 06:33N 01°16' E 103°55'2 2.2
2016-Apr-08 05:33N 01°14' E 103°55'6 6.1
2016-Apr-08 04:34N 01°16' E 104°01'  

Dump ship's entire track history